createdAt,value
2019-01-18T00:01:22.080Z,85.40
2019-01-18T00:04:05.110Z,85.30
2019-01-18T00:06:44.255Z,85.10
2019-01-18T00:09:43.770Z,85.00
2019-01-18T00:12:23.592Z,85.00
2019-01-18T00:15:03.603Z,84.90
2019-01-18T00:17:43.746Z,84.80
2019-01-18T00:20:26.356Z,84.70
2019-01-18T00:23:06.142Z,84.50
2019-01-18T00:25:46.151Z,84.40
2019-01-18T00:28:23.386Z,84.20
2019-01-18T00:31:12.101Z,84.10
2019-01-18T00:33:51.478Z,83.90
2019-01-18T00:36:30.668Z,83.90
2019-01-18T00:39:10.764Z,84.00
2019-01-18T00:41:52.970Z,83.90
2019-01-18T00:44:35.055Z,83.90
2019-01-18T00:47:15.127Z,83.90
2019-01-18T00:49:55.159Z,83.80
2019-01-18T00:52:35.219Z,83.70
2019-01-18T00:55:17.345Z,83.50
2019-01-18T00:57:56.678Z,83.30
2019-01-18T01:00:38.788Z,83.30
2019-01-18T01:03:18.211Z,83.30
2019-01-18T01:05:57.288Z,83.10
2019-01-18T01:08:37.398Z,83.20
2019-01-18T01:11:18.604Z,83.00
2019-01-18T01:14:00.634Z,82.90
2019-01-18T01:16:39.843Z,82.80
2019-01-18T01:19:19.095Z,82.60
2019-01-18T01:21:59.135Z,82.60
2019-01-18T01:24:38.251Z,82.60
2019-01-18T01:27:17.411Z,82.40
2019-01-18T01:29:57.449Z,82.50
2019-01-18T01:32:39.627Z,82.30
2019-01-18T01:35:19.134Z,82.30
2019-01-18T01:38:01.150Z,82.50
2019-01-18T01:40:40.288Z,82.60
2019-01-18T01:43:20.384Z,82.60
2019-01-18T01:45:59.511Z,82.60
2019-01-18T01:48:42.380Z,82.50
2019-01-18T01:51:21.848Z,82.60
2019-01-18T01:54:00.971Z,82.60
2019-01-18T01:56:41.064Z,82.50
2019-01-18T01:59:23.262Z,82.40
2019-01-18T02:02:02.475Z,82.30
2019-01-18T02:04:41.592Z,82.00
2019-01-18T02:07:21.694Z,81.90
2019-01-18T02:10:01.764Z,81.90
2019-01-18T02:12:40.908Z,82.40
2019-01-18T02:15:20.864Z,82.80
2019-01-18T02:18:00.979Z,82.80
2019-01-18T02:20:42.958Z,82.60
2019-01-18T02:23:22.191Z,82.40
2019-01-18T02:26:02.159Z,82.20
2019-01-18T02:28:41.423Z,82.20
2019-01-18T02:31:21.420Z,82.40
2019-01-18T02:34:01.230Z,82.40
2019-01-18T02:36:41.211Z,82.50
2019-01-18T02:39:41.365Z,82.60
2019-01-18T02:42:21.571Z,82.80
2019-01-18T02:45:01.555Z,82.80
2019-01-18T02:47:41.600Z,82.60
2019-01-18T02:50:21.683Z,82.70
2019-01-18T02:53:03.977Z,82.60
2019-01-18T02:55:46.118Z,82.40
2019-01-18T02:58:26.045Z,82.30
2019-01-18T03:01:05.960Z,82.30
2019-01-18T03:03:48.033Z,82.20
2019-01-18T03:06:27.468Z,82.20
2019-01-18T03:09:07.982Z,82.10
2019-01-18T03:11:49.728Z,82.20
2019-01-18T03:14:28.824Z,82.30
2019-01-18T03:17:08.827Z,82.10
2019-01-18T03:19:48.913Z,82.20
2019-01-18T03:22:28.129Z,82.30
2019-01-18T03:25:08.235Z,82.30
2019-01-18T03:27:48.311Z,82.30
2019-01-18T03:30:30.245Z,82.10
2019-01-18T03:33:10.244Z,81.90
2019-01-18T03:35:50.135Z,81.80
2019-01-18T03:38:29.984Z,81.80
2019-01-18T03:41:09.975Z,81.90
2019-01-18T03:43:52.098Z,82.00
2019-01-18T03:46:31.404Z,82.00
2019-01-18T03:49:10.567Z,82.00
2019-01-18T03:51:49.722Z,82.00
2019-01-18T03:54:28.967Z,82.00
2019-01-18T03:57:11.091Z,81.90
2019-01-18T03:59:51.251Z,81.90
2019-01-18T04:02:31.279Z,81.90
2019-01-18T04:05:11.314Z,81.90
2019-01-18T04:07:51.379Z,81.70
2019-01-18T04:10:50.520Z,81.70
2019-01-18T04:13:32.559Z,81.60
2019-01-18T04:16:11.749Z,81.50
2019-01-18T04:18:50.884Z,81.50
2019-01-18T04:21:32.932Z,81.40
2019-01-18T04:24:12.988Z,81.30
2019-01-18T04:26:52.419Z,81.20
2019-01-18T04:29:32.479Z,81.00
2019-01-18T04:32:12.610Z,81.00
2019-01-18T04:34:51.858Z,81.00
2019-01-18T04:37:34.049Z,81.00
2019-01-18T04:40:13.264Z,80.90
2019-01-18T04:42:55.342Z,80.80
2019-01-18T04:45:34.515Z,80.80
2019-01-18T04:48:13.604Z,80.80
2019-01-18T04:50:53.624Z,80.70
2019-01-18T04:53:32.749Z,80.80
2019-01-18T04:56:14.943Z,80.70
2019-01-18T04:58:57.156Z,80.70
2019-01-18T05:01:36.352Z,80.70
2019-01-18T05:04:16.469Z,80.70
2019-01-18T05:06:56.465Z,80.70
2019-01-18T05:09:35.949Z,80.70
2019-01-18T05:12:15.201Z,80.70
2019-01-18T05:14:54.321Z,80.60
2019-01-18T05:17:33.588Z,80.60
2019-01-18T05:20:12.766Z,80.70
2019-01-18T05:22:54.988Z,80.80
2019-01-18T05:25:34.967Z,80.90
2019-01-18T05:28:14.184Z,80.80
2019-01-18T05:30:53.457Z,80.90
2019-01-18T05:33:33.440Z,81.10
2019-01-18T05:36:12.491Z,81.20
2019-01-18T05:38:54.440Z,81.10
2019-01-18T05:41:33.756Z,81.10
2019-01-18T05:44:13.002Z,81.00
2019-01-18T05:46:53.032Z,80.90
2019-01-18T05:49:32.327Z,80.90
2019-01-18T05:52:12.380Z,80.70
2019-01-18T05:54:51.583Z,80.70
2019-01-18T05:57:50.730Z,80.60
2019-01-18T06:00:34.830Z,80.60
2019-01-18T06:03:16.996Z,80.50
2019-01-18T06:06:16.298Z,80.50
2019-01-18T06:08:55.463Z,80.70
2019-01-18T06:11:54.667Z,80.70
2019-01-18T06:14:36.837Z,80.70
2019-01-18T06:17:18.867Z,80.60
2019-01-18T06:19:58.929Z,80.60
2019-01-18T06:22:37.939Z,80.50
2019-01-18T06:25:17.916Z,80.60
2019-01-18T06:28:17.219Z,80.60
2019-01-18T06:31:01.694Z,80.60
2019-01-18T06:33:38.639Z,80.40
2019-01-18T06:36:17.879Z,80.40
2019-01-18T06:38:57.860Z,80.40
2019-01-18T06:41:38.448Z,80.40
2019-01-18T06:44:20.962Z,80.50
2019-01-18T06:47:00.137Z,80.40
2019-01-18T06:49:39.229Z,80.40
2019-01-18T06:52:18.491Z,80.40
2019-01-18T06:54:58.578Z,80.50
2019-01-18T06:57:38.660Z,80.50
2019-01-18T07:00:38.153Z,80.50
2019-01-18T07:03:18.256Z,80.40
2019-01-18T07:05:57.386Z,80.40
2019-01-18T07:08:36.602Z,80.40
2019-01-18T07:11:15.865Z,80.30
2019-01-18T07:13:55.094Z,80.30
2019-01-18T07:16:34.214Z,80.30
2019-01-18T07:19:13.453Z,80.20
2019-01-18T07:21:53.477Z,80.30
2019-01-18T07:24:33.557Z,80.70
2019-01-18T07:27:12.923Z,80.80
2019-01-18T07:29:52.277Z,80.90
2019-01-18T07:32:31.382Z,81.20
2019-01-18T07:35:11.189Z,81.30
2019-01-18T07:37:53.123Z,81.70
2019-01-18T07:40:32.416Z,81.70
2019-01-18T07:43:11.667Z,82.10
2019-01-18T07:45:50.902Z,82.50
2019-01-18T07:48:29.993Z,82.60
2019-01-18T07:51:09.191Z,82.70
2019-01-18T07:53:49.245Z,83.40
2019-01-18T07:56:26.479Z,83.00
2019-01-18T07:59:15.166Z,83.20
2019-01-18T08:01:54.410Z,83.10
2019-01-18T08:04:33.770Z,83.10
2019-01-18T08:07:12.860Z,83.10
2019-01-18T08:09:52.159Z,83.10
2019-01-18T08:12:31.246Z,83.20
2019-01-18T08:15:10.386Z,83.50
2019-01-18T08:17:49.436Z,83.30
2019-01-18T08:20:28.644Z,83.40
2019-01-18T08:23:08.644Z,83.60
2019-01-18T08:26:08.037Z,83.70
2019-01-18T08:28:48.542Z,84.00
2019-01-18T08:31:31.337Z,84.00
2019-01-18T08:34:10.731Z,84.20
2019-01-18T08:36:50.654Z,84.20
2019-01-18T08:39:29.804Z,84.60
2019-01-18T08:42:09.146Z,84.50
2019-01-18T08:44:48.650Z,84.40
2019-01-18T08:47:30.790Z,84.40
2019-01-18T08:50:10.034Z,84.50
2019-01-18T08:52:49.203Z,84.50
2019-01-18T08:55:31.490Z,84.70
2019-01-18T08:58:00.298Z,85.00
2019-01-18T09:01:06.468Z,84.80
2019-01-18T09:03:46.254Z,84.90
2019-01-18T09:06:25.431Z,85.00
2019-01-18T09:09:04.745Z,85.00
2019-01-18T09:11:43.835Z,85.10
2019-01-18T09:14:23.085Z,85.20
2019-01-18T09:17:02.278Z,85.20
2019-01-18T09:19:42.295Z,85.20
2019-01-18T09:22:41.811Z,85.30
2019-01-18T09:25:20.944Z,85.40
2019-01-18T09:28:01.006Z,85.50
2019-01-18T09:30:43.205Z,85.50
2019-01-18T09:33:25.398Z,85.60
2019-01-18T09:36:04.578Z,85.70
2019-01-18T09:38:43.674Z,85.60
2019-01-18T09:41:44.173Z,85.70
2019-01-18T09:44:23.719Z,85.60
2019-01-18T09:47:02.965Z,85.70
2019-01-18T09:49:42.875Z,86.00
2019-01-18T09:52:22.345Z,86.00
2019-01-18T09:55:02.428Z,85.90
2019-01-18T09:57:41.593Z,85.90
2019-01-18T10:00:20.850Z,85.70
2019-01-18T10:03:00.634Z,85.40
2019-01-18T10:05:42.874Z,85.40
2019-01-18T10:08:25.002Z,85.20
2019-01-18T10:11:07.208Z,85.40
2019-01-18T10:13:49.448Z,85.50
2019-01-18T10:16:49.069Z,85.50
2019-01-18T10:19:29.121Z,85.50
2019-01-18T10:22:28.511Z,85.50
2019-01-18T10:25:08.499Z,85.80
2019-01-18T10:27:50.817Z,85.80
2019-01-18T10:30:50.116Z,85.90
2019-01-18T10:33:49.406Z,85.80
2019-01-18T10:36:28.610Z,85.40
2019-01-18T10:39:27.974Z,85.40
2019-01-18T10:42:10.233Z,85.50
2019-01-18T10:44:52.289Z,85.60
2019-01-18T10:47:34.358Z,85.70
2019-01-18T10:50:13.480Z,85.60
2019-01-18T10:52:53.545Z,85.60
2019-01-18T10:55:32.721Z,85.60
2019-01-18T10:58:12.854Z,85.70
2019-01-18T11:00:53.149Z,85.50
2019-01-18T11:03:32.289Z,85.40
2019-01-18T11:06:11.448Z,85.50
2019-01-18T11:08:50.720Z,85.30
2019-01-18T11:11:30.019Z,85.20
2019-01-18T11:14:10.227Z,85.00
2019-01-18T11:16:50.218Z,84.90
2019-01-18T11:19:49.397Z,84.90
2019-01-18T11:22:31.474Z,84.90
2019-01-18T11:25:10.618Z,84.80
2019-01-18T11:27:49.756Z,84.60
2019-01-18T11:30:28.877Z,84.30
2019-01-18T11:33:08.947Z,84.30
2019-01-18T11:35:48.116Z,84.50
2019-01-18T11:38:27.244Z,84.50
2019-01-18T11:41:04.584Z,84.60
2019-01-18T11:43:44.288Z,84.50
2019-01-18T11:46:23.405Z,84.40
2019-01-18T11:49:00.609Z,84.10
2019-01-18T11:52:10.046Z,83.90
2019-01-18T11:54:49.797Z,83.30
2019-01-18T11:57:29.755Z,82.50
2019-01-18T12:00:12.904Z,82.40
2019-01-18T12:02:52.039Z,82.30
2019-01-18T12:05:32.113Z,81.70
2019-01-18T12:08:31.650Z,81.50
2019-01-18T12:11:10.852Z,80.80
2019-01-18T12:13:50.027Z,80.10
2019-01-18T12:16:29.101Z,79.00
2019-01-18T12:19:08.156Z,79.40
2019-01-18T12:21:50.296Z,79.90
2019-01-18T12:24:32.062Z,80.80
2019-01-18T12:27:11.129Z,81.00
2019-01-18T12:29:53.370Z,80.20
2019-01-18T12:32:33.450Z,79.90
2019-01-18T12:35:32.683Z,78.70
2019-01-18T12:38:32.178Z,78.20
2019-01-18T12:41:11.392Z,78.30
2019-01-18T12:43:50.766Z,78.10
2019-01-18T12:46:30.715Z,78.10
2019-01-18T12:49:29.847Z,77.50
2019-01-18T12:52:09.343Z,77.30
2019-01-18T12:54:49.376Z,77.60
2019-01-18T12:57:29.446Z,77.40
2019-01-18T13:00:08.676Z,77.40
2019-01-18T13:02:47.892Z,76.40
2019-01-18T13:05:27.166Z,75.60
2019-01-18T13:08:06.281Z,75.20
2019-01-18T13:10:45.665Z,75.30
2019-01-18T13:13:24.786Z,75.90
2019-01-18T13:16:03.989Z,75.80
2019-01-18T13:18:43.304Z,75.40
2019-01-18T13:21:23.220Z,75.50
2019-01-18T13:24:02.452Z,74.30
2019-01-18T13:26:42.443Z,74.00
2019-01-18T13:29:41.776Z,73.50
2019-01-18T13:32:23.950Z,73.60
2019-01-18T13:35:05.909Z,73.80
2019-01-18T13:37:48.194Z,74.10
2019-01-18T13:40:30.364Z,73.10
2019-01-18T13:43:12.583Z,73.10
2019-01-18T13:45:54.432Z,72.00
2019-01-18T13:48:33.614Z,72.70
2019-01-18T13:51:13.674Z,72.80
2019-01-18T13:53:52.853Z,73.00
2019-01-18T13:56:32.234Z,73.00
2019-01-18T13:59:31.622Z,72.80
2019-01-18T14:02:13.632Z,73.70
2019-01-18T14:04:52.776Z,73.70
2019-01-18T14:07:31.930Z,74.00
2019-01-18T14:10:12.072Z,72.90
2019-01-18T14:12:52.132Z,70.90
2019-01-18T14:15:31.183Z,70.90
2019-01-18T14:18:13.580Z,72.10
2019-01-18T14:21:13.043Z,72.60
2019-01-18T14:23:53.182Z,73.20
2019-01-18T14:26:33.125Z,71.10
2019-01-18T14:29:12.388Z,71.30
2019-01-18T14:31:52.703Z,71.00
2019-01-18T14:34:32.504Z,71.70
2019-01-18T14:37:12.641Z,72.10
2019-01-18T14:39:52.597Z,71.60
2019-01-18T14:42:31.791Z,72.20
2019-01-18T14:45:13.915Z,70.60
2019-01-18T14:48:13.187Z,69.60
2019-01-18T14:53:35.113Z,69.60
2019-01-18T14:56:15.175Z,70.60
2019-01-18T14:58:54.339Z,69.10
2019-01-18T15:01:36.696Z,69.60
2019-01-18T15:04:16.725Z,70.50
2019-01-18T15:07:15.752Z,70.20
2019-01-18T15:10:15.254Z,70.40
2019-01-18T15:12:54.429Z,70.00
2019-01-18T15:15:34.568Z,69.40
2019-01-18T15:18:33.683Z,70.00
2019-01-18T15:21:16.012Z,70.40
2019-01-18T15:23:55.999Z,70.90
2019-01-18T15:26:55.304Z,71.40
2019-01-18T15:29:34.577Z,71.70
2019-01-18T15:32:13.739Z,71.90
2019-01-18T15:34:52.872Z,72.20
2019-01-18T15:37:32.189Z,72.60
2019-01-18T15:40:12.364Z,72.70
2019-01-18T15:42:52.339Z,73.00
2019-01-18T15:45:32.448Z,73.00
2019-01-18T15:48:12.361Z,73.10
2019-01-18T15:50:51.462Z,73.30
2019-01-18T15:53:50.984Z,73.30
2019-01-18T15:56:30.288Z,73.60
2019-01-18T15:59:09.523Z,73.40
2019-01-18T16:01:48.666Z,73.50
2019-01-18T16:04:28.611Z,73.20
2019-01-18T16:07:10.527Z,73.50
2019-01-18T16:09:50.601Z,73.80
2019-01-18T16:12:29.839Z,73.90
2019-01-18T16:15:09.654Z,73.80
2019-01-18T16:17:51.837Z,74.90
2019-01-18T16:20:50.982Z,74.30
2019-01-18T16:23:50.520Z,74.20
2019-01-18T16:26:30.457Z,74.50
2019-01-18T16:29:29.583Z,74.40
2019-01-18T16:32:08.902Z,74.50
2019-01-18T16:34:47.977Z,74.50
2019-01-18T16:37:27.116Z,74.40
2019-01-18T16:40:06.323Z,74.30
2019-01-18T16:42:46.329Z,74.40
2019-01-18T16:45:25.714Z,74.40
2019-01-18T16:48:04.977Z,74.40
2019-01-18T16:50:44.917Z,74.30
2019-01-18T16:53:44.188Z,74.40
2019-01-18T16:56:43.452Z,74.30
2019-01-18T16:59:42.813Z,74.30
2019-01-18T17:02:42.112Z,74.20
2019-01-18T17:05:21.411Z,74.30
2019-01-18T17:08:00.659Z,74.50
2019-01-18T17:10:40.733Z,74.50
2019-01-18T17:13:22.756Z,74.50
2019-01-18T17:16:02.003Z,74.40
2019-01-18T17:18:42.395Z,74.60
2019-01-18T17:21:24.052Z,74.50
2019-01-18T17:24:03.178Z,74.60
2019-01-18T17:26:42.424Z,74.70
2019-01-18T17:29:22.420Z,74.70
2019-01-18T17:32:21.782Z,74.80
2019-01-18T17:35:03.733Z,74.80
2019-01-18T17:37:30.047Z,75.00
2019-01-18T17:39:56.825Z,75.00
2019-01-18T17:42:29.856Z,74.80
2019-01-18T17:45:32.825Z,74.70
2019-01-18T17:48:11.240Z,74.90
2019-01-18T17:51:08.906Z,74.80
2019-01-18T17:54:13.767Z,75.10
2019-01-18T17:57:03.786Z,75.20
2019-01-18T18:00:11.912Z,75.20
2019-01-18T18:03:05.662Z,75.20
2019-01-18T18:06:02.080Z,75.20
2019-01-18T18:08:46.981Z,75.30
2019-01-18T18:11:34.625Z,75.40
2019-01-18T18:14:09.265Z,75.40
2019-01-18T18:17:01.815Z,75.40
2019-01-18T18:19:43.244Z,75.30
2019-01-18T18:22:33.174Z,75.30
2019-01-18T18:25:10.374Z,75.40
2019-01-18T18:27:52.361Z,75.30
2019-01-18T18:30:28.153Z,75.50
2019-01-18T18:33:50.442Z,75.60
2019-01-18T18:36:25.138Z,75.40
2019-01-18T18:38:57.719Z,75.30
2019-01-18T18:41:59.985Z,75.40
2019-01-18T18:44:42.115Z,75.40
2019-01-18T18:47:14.674Z,75.40
2019-01-18T18:50:03.980Z,75.30
2019-01-18T18:52:51.750Z,75.50
2019-01-18T18:55:30.622Z,75.60
2019-01-18T18:58:12.787Z,75.60
2019-01-18T19:00:55.028Z,75.40
2019-01-18T19:03:49.183Z,75.50
2019-01-18T19:06:41.456Z,75.50
2019-01-18T19:09:30.587Z,75.50
2019-01-18T19:12:40.665Z,75.60
2019-01-18T19:15:31.788Z,75.60
2019-01-18T19:18:18.170Z,75.50
2019-01-18T19:20:57.022Z,75.60
2019-01-18T19:23:41.771Z,75.50
2019-01-18T19:26:23.838Z,75.60
2019-01-18T19:29:02.355Z,75.40
2019-01-18T19:31:38.381Z,75.40
2019-01-18T19:34:17.468Z,75.50
2019-01-18T19:36:56.325Z,75.50
2019-01-18T19:39:26.321Z,75.60
2019-01-18T19:42:32.974Z,75.60
2019-01-18T19:45:22.612Z,75.50
2019-01-18T19:48:13.073Z,75.40
2019-01-18T19:50:45.854Z,75.40
2019-01-18T19:53:43.521Z,75.60
2019-01-18T19:56:47.025Z,75.60
2019-01-18T19:59:20.051Z,75.40
2019-01-18T20:02:13.664Z,75.50
2019-01-18T20:04:43.669Z,75.50
2019-01-18T20:07:37.777Z,75.50
2019-01-18T20:10:32.250Z,75.60
2019-01-18T20:13:07.294Z,75.50
2019-01-18T20:15:45.787Z,75.50
2019-01-18T20:18:18.767Z,75.60
2019-01-18T20:21:03.718Z,75.70
2019-01-18T20:23:59.608Z,75.70
2019-01-18T20:26:32.641Z,75.60
2019-01-18T20:29:02.617Z,75.60
2019-01-18T20:31:41.716Z,75.60
2019-01-18T20:34:23.492Z,75.60
2019-01-18T20:37:00.415Z,75.60
2019-01-18T20:40:21.098Z,75.50
2019-01-18T20:43:30.660Z,75.60
2019-01-18T20:46:15.151Z,75.60
2019-01-18T20:49:12.142Z,75.70
2019-01-18T20:51:54.152Z,75.70
2019-01-18T20:54:45.420Z,75.60
2019-01-18T20:57:37.840Z,75.60
2019-01-18T21:00:30.306Z,75.70
2019-01-18T21:03:12.429Z,75.70
2019-01-18T21:05:57.574Z,75.60
2019-01-18T21:08:38.784Z,75.70
2019-01-18T21:11:14.955Z,75.80
2019-01-18T21:13:47.791Z,75.90
2019-01-18T21:16:26.611Z,75.90
2019-01-18T21:19:25.185Z,75.90
2019-01-18T21:22:21.556Z,75.80
2019-01-18T21:24:57.523Z,75.80
2019-01-18T21:27:30.248Z,76.50
2019-01-18T21:30:25.263Z,75.80
2019-01-18T21:33:04.086Z,75.80
2019-01-18T21:35:36.863Z,75.70
2019-01-18T21:38:26.284Z,75.80
2019-01-18T21:41:05.074Z,75.80
2019-01-18T21:43:51.816Z,75.90
2019-01-18T21:46:30.461Z,75.90
2019-01-18T21:49:15.475Z,75.80
2019-01-18T21:52:06.511Z,75.90
2019-01-18T21:54:39.527Z,75.90
2019-01-18T21:57:48.765Z,75.90
2019-01-18T22:00:41.287Z,76.00
2019-01-18T22:03:44.760Z,75.90
2019-01-18T22:06:26.671Z,76.00
2019-01-18T22:09:04.670Z,76.00
2019-01-18T22:12:04.837Z,76.00
2019-01-18T22:14:53.135Z,76.00
2019-01-18T22:17:28.392Z,76.10
2019-01-18T22:20:09.939Z,76.20
2019-01-18T22:22:51.564Z,76.30
2019-01-18T22:25:36.385Z,76.20
2019-01-18T22:28:30.362Z,76.20
2019-01-18T22:31:06.407Z,76.30
2019-01-18T22:33:56.842Z,76.30
2019-01-18T22:37:00.151Z,76.40
2019-01-18T22:39:30.141Z,76.40
2019-01-18T22:42:44.063Z,76.50
2019-01-18T22:45:17.002Z,76.60
2019-01-18T22:48:13.583Z,76.50
2019-01-18T22:51:04.292Z,76.60
2019-01-18T22:54:04.151Z,76.70
2019-01-18T22:56:49.090Z,76.60
2019-01-18T22:59:35.497Z,76.80
2019-01-18T23:02:17.028Z,76.90
2019-01-18T23:04:56.011Z,76.90
2019-01-18T23:07:29.035Z,77.00
2019-01-18T23:10:25.523Z,76.90
2019-01-18T23:13:10.672Z,77.00
2019-01-18T23:15:49.836Z,77.20
2019-01-18T23:18:28.659Z,77.10
2019-01-18T23:21:18.412Z,77.10
2019-01-18T23:23:56.778Z,77.20
2019-01-18T23:26:38.686Z,77.30
2019-01-18T23:29:14.783Z,77.40
2019-01-18T23:32:18.136Z,77.40
2019-01-18T23:34:53.842Z,77.90
2019-01-18T23:37:26.453Z,78.20
2019-01-18T23:40:18.796Z,78.20
2019-01-18T23:42:54.394Z,78.00
2019-01-18T23:45:42.698Z,77.80
2019-01-18T23:48:27.617Z,77.80
2019-01-18T23:51:17.308Z,77.80
2019-01-18T23:54:20.570Z,77.80
2019-01-18T23:57:21.091Z,77.80
